createdAt,value
2022-12-01T00:01:17.284Z,20.50
2022-12-01T00:03:45.114Z,21.53
2022-12-01T00:06:15.724Z,21.47
2022-12-01T00:09:05.445Z,21.93
2022-12-01T00:11:33.912Z,21.23
2022-12-01T00:14:01.763Z,21.30
2022-12-01T00:16:29.865Z,24.27
2022-12-01T00:18:57.931Z,22.67
2022-12-01T00:21:26.674Z,22.20
2022-12-01T00:23:56.277Z,22.27
2022-12-01T00:26:25.743Z,20.73
2022-12-01T00:28:56.990Z,22.47
2022-12-01T00:31:25.323Z,21.33
2022-12-01T00:33:53.459Z,22.97
2022-12-01T00:36:21.240Z,22.27
2022-12-01T00:38:49.049Z,24.10
2022-12-01T00:41:16.827Z,21.20
2022-12-01T00:43:44.788Z,20.03
2022-12-01T00:46:13.997Z,22.60
2022-12-01T00:48:42.114Z,20.20
2022-12-01T00:51:09.777Z,21.83
2022-12-01T00:53:37.614Z,26.97
2022-12-01T00:56:05.869Z,21.17
2022-12-01T00:58:33.599Z,20.83
2022-12-01T01:01:02.901Z,18.80
2022-12-01T01:03:33.711Z,21.53
2022-12-01T01:06:06.694Z,20.43
2022-12-01T01:08:34.462Z,20.33
2022-12-01T01:11:02.760Z,20.10
2022-12-01T01:13:30.630Z,20.77
2022-12-01T01:16:00.539Z,22.90
2022-12-01T01:18:28.460Z,24.17
2022-12-01T01:20:58.286Z,20.97
2022-12-01T01:23:26.757Z,21.47
2022-12-01T01:25:54.504Z,20.23
2022-12-01T01:28:22.139Z,18.33
2022-12-01T01:30:49.773Z,21.33
2022-12-01T01:33:17.487Z,23.30
2022-12-01T01:35:45.086Z,19.10
2022-12-01T01:38:14.127Z,22.30
2022-12-01T01:40:44.197Z,19.13
2022-12-01T01:43:16.055Z,20.87
2022-12-01T01:45:44.147Z,23.27
2022-12-01T01:48:14.368Z,21.97
2022-12-01T01:50:42.609Z,21.13
2022-12-01T01:53:13.250Z,20.00
2022-12-01T01:55:42.325Z,22.40
2022-12-01T01:58:11.976Z,20.50
2022-12-01T02:00:42.616Z,22.47
2022-12-01T02:03:13.932Z,20.20
2022-12-01T02:05:44.790Z,21.13
2022-12-01T02:08:13.221Z,22.23
2022-12-01T02:11:05.693Z,24.03
2022-12-01T02:13:40.472Z,21.27
2022-12-01T02:16:13.610Z,23.23
2022-12-01T02:18:53.255Z,21.97
2022-12-01T02:21:37.130Z,19.83
2022-12-01T02:24:43.517Z,23.73
2022-12-01T02:27:24.134Z,19.10
2022-12-01T02:30:11.850Z,23.30
2022-12-01T02:33:01.441Z,22.20
2022-12-01T02:35:37.241Z,23.67
2022-12-01T02:38:14.820Z,19.67
2022-12-01T02:40:46.796Z,22.73
2022-12-01T02:43:21.914Z,23.60
2022-12-01T02:45:55.525Z,23.43
2022-12-01T02:48:29.442Z,24.40
2022-12-01T02:51:01.920Z,23.43
2022-12-01T02:53:29.659Z,21.57
2022-12-01T02:55:59.768Z,22.57
2022-12-01T02:58:27.441Z,22.80
2022-12-01T03:01:18.950Z,21.97
2022-12-01T03:04:01.593Z,23.13
2022-12-01T03:06:40.797Z,24.53
2022-12-01T03:09:17.198Z,23.53
2022-12-01T03:11:52.345Z,21.37
2022-12-01T03:14:29.726Z,21.97
2022-12-01T03:17:03.401Z,20.97
2022-12-01T03:19:36.974Z,22.03
2022-12-01T03:22:10.025Z,22.17
2022-12-01T03:24:40.751Z,23.80
2022-12-01T03:27:10.838Z,19.33
2022-12-01T03:29:43.147Z,23.07
2022-12-01T03:32:15.838Z,24.07
2022-12-01T03:34:49.831Z,22.70
2022-12-01T03:37:23.556Z,22.00
2022-12-01T03:39:59.969Z,22.33
2022-12-01T03:42:33.186Z,22.60
2022-12-01T03:45:05.664Z,21.47
2022-12-01T03:47:35.715Z,23.30
2022-12-01T03:50:05.825Z,22.33
2022-12-01T03:52:43.942Z,24.33
2022-12-01T03:55:18.835Z,24.97
2022-12-01T03:57:50.212Z,26.73
2022-12-01T04:00:18.234Z,21.83
2022-12-01T04:02:46.006Z,22.07
2022-12-01T04:05:15.070Z,24.27
2022-12-01T04:07:42.749Z,24.33
2022-12-01T04:10:10.826Z,22.97
2022-12-01T04:12:37.472Z,21.37
2022-12-01T04:15:09.022Z,23.37
2022-12-01T04:17:36.915Z,20.27
2022-12-01T04:20:06.501Z,20.83
2022-12-01T04:22:35.607Z,23.23
2022-12-01T04:25:03.448Z,19.80
2022-12-01T04:27:31.082Z,23.90
2022-12-01T04:29:58.756Z,24.80
2022-12-01T04:32:26.581Z,22.27
2022-12-01T04:34:54.293Z,23.40
2022-12-01T04:37:21.983Z,22.40
2022-12-01T04:39:51.218Z,22.97
2022-12-01T04:42:19.135Z,19.20
2022-12-01T04:44:46.758Z,22.27
2022-12-01T04:47:14.457Z,23.23
2022-12-01T04:49:42.086Z,20.83
2022-12-01T04:52:09.727Z,21.03
2022-12-01T04:54:37.359Z,20.87
2022-12-01T04:57:06.300Z,23.23
2022-12-01T04:59:33.926Z,20.60
2022-12-01T05:02:02.651Z,19.30
2022-12-01T05:04:31.221Z,23.97
2022-12-01T05:06:58.835Z,22.13
2022-12-01T05:09:26.425Z,21.33
2022-12-01T05:11:54.017Z,21.10
2022-12-01T05:14:25.318Z,22.43
2022-12-01T05:16:54.360Z,23.37
2022-12-01T05:19:39.787Z,19.60
2022-12-01T05:22:07.436Z,21.97
2022-12-01T05:24:35.043Z,24.07
2022-12-01T05:27:02.724Z,23.83
2022-12-01T05:29:32.962Z,20.17
2022-12-01T05:32:01.391Z,21.80
2022-12-01T05:34:29.084Z,23.57
2022-12-01T05:36:56.672Z,21.47
2022-12-01T05:39:24.378Z,19.40
2022-12-01T05:41:52.632Z,21.83
2022-12-01T05:44:20.569Z,22.73
2022-12-01T05:46:49.583Z,26.47
2022-12-01T05:49:17.525Z,22.63
2022-12-01T05:51:45.864Z,22.97
2022-12-01T05:54:13.625Z,23.17
2022-12-01T05:56:41.658Z,23.83
2022-12-01T05:59:09.389Z,24.20
2022-12-01T06:01:37.092Z,23.27
2022-12-01T06:04:06.315Z,22.20
2022-12-01T06:06:34.002Z,22.37
2022-12-01T06:09:01.852Z,21.27
2022-12-01T06:11:29.630Z,21.10
2022-12-01T06:13:57.423Z,23.87
2022-12-01T06:16:25.382Z,21.33
2022-12-01T06:18:53.198Z,22.33
2022-12-01T06:21:22.331Z,22.30
2022-12-01T06:23:50.029Z,23.27
2022-12-01T06:26:17.806Z,22.93
2022-12-01T06:28:45.458Z,25.17
2022-12-01T06:31:13.156Z,24.20
2022-12-01T06:33:40.821Z,27.53
2022-12-01T06:36:10.406Z,22.43
2022-12-01T06:38:39.460Z,19.93
2022-12-01T06:41:07.469Z,22.73
2022-12-01T06:43:37.666Z,20.33
2022-12-01T06:46:06.289Z,23.30
2022-12-01T06:48:34.402Z,20.87
2022-12-01T06:51:03.069Z,20.40
2022-12-01T06:53:31.337Z,22.67
2022-12-01T06:56:02.130Z,21.37
2022-12-01T06:58:30.225Z,24.43
2022-12-01T07:00:59.053Z,20.53
2022-12-01T07:03:27.318Z,22.07
2022-12-01T07:05:59.653Z,21.83
2022-12-01T07:08:27.475Z,22.27
2022-12-01T07:10:59.576Z,20.50
2022-12-01T07:13:33.286Z,20.77
2022-12-01T07:16:01.995Z,20.03
2022-12-01T07:18:30.012Z,21.00
2022-12-01T07:21:00.269Z,22.57
2022-12-01T07:23:28.092Z,21.30
2022-12-01T07:25:59.777Z,21.17
2022-12-01T07:28:29.866Z,20.60
2022-12-01T07:31:03.282Z,22.07
2022-12-01T07:33:31.114Z,20.63
2022-12-01T07:35:59.240Z,19.10
2022-12-01T07:38:28.734Z,20.50
2022-12-01T07:40:56.696Z,20.73
2022-12-01T07:43:24.388Z,20.70
2022-12-01T07:45:53.490Z,23.90
2022-12-01T07:48:21.671Z,20.63
2022-12-01T07:50:49.316Z,20.40
2022-12-01T07:53:16.970Z,17.53
2022-12-01T07:55:49.344Z,22.90
2022-12-01T07:58:17.116Z,23.07
2022-12-01T08:00:44.798Z,19.60
2022-12-01T08:03:14.178Z,18.80
2022-12-01T08:05:41.969Z,19.47
2022-12-01T08:08:09.783Z,20.27
2022-12-01T08:10:37.936Z,20.07
2022-12-01T08:13:05.755Z,19.97
2022-12-01T08:15:33.481Z,20.50
2022-12-01T08:18:03.565Z,18.93
2022-12-01T08:20:32.638Z,20.90
2022-12-01T08:23:01.666Z,21.33
2022-12-01T08:25:29.800Z,24.30
2022-12-01T08:27:57.868Z,19.40
2022-12-01T08:30:25.598Z,19.33
2022-12-01T08:32:55.134Z,18.30
2022-12-01T08:35:23.064Z,20.80
2022-12-01T08:37:54.200Z,17.43
2022-12-01T08:40:22.393Z,19.73
2022-12-01T08:42:50.204Z,20.80
2022-12-01T08:45:17.930Z,18.73
2022-12-01T08:47:45.677Z,18.97
2022-12-01T08:50:13.395Z,18.47
2022-12-01T08:52:41.326Z,20.77
2022-12-01T08:55:10.927Z,18.33
2022-12-01T08:57:38.719Z,26.03
2022-12-01T09:00:07.962Z,26.17
2022-12-01T09:02:36.231Z,20.27
2022-12-01T09:05:04.943Z,22.57
2022-12-01T09:07:33.661Z,19.03
2022-12-01T09:10:01.451Z,17.90
2022-12-01T09:12:31.286Z,19.33
2022-12-01T09:14:59.032Z,19.97
2022-12-01T09:17:26.834Z,21.27
2022-12-01T09:19:54.497Z,23.90
2022-12-01T09:22:22.162Z,20.63
2022-12-01T09:24:49.815Z,18.03
2022-12-01T09:27:17.512Z,21.10
2022-12-01T09:29:46.814Z,22.90
2022-12-01T09:32:14.648Z,20.67
2022-12-01T09:34:42.368Z,19.10
2022-12-01T09:37:10.016Z,17.20
2022-12-01T09:39:37.721Z,19.73
2022-12-01T09:42:12.825Z,23.30
2022-12-01T09:44:43.725Z,18.17
2022-12-01T09:47:19.199Z,19.50
2022-12-01T09:49:55.331Z,21.80
2022-12-01T09:52:26.460Z,19.00
2022-12-01T09:54:56.268Z,21.03
2022-12-01T09:57:31.254Z,18.10
2022-12-01T10:00:01.068Z,18.90
2022-12-01T10:02:34.860Z,21.87
2022-12-01T10:05:05.228Z,19.60
2022-12-01T10:07:37.693Z,22.07
2022-12-01T10:10:08.408Z,19.13
2022-12-01T10:12:37.051Z,18.87
2022-12-01T10:15:19.552Z,18.27
2022-12-01T10:18:02.173Z,20.47
2022-12-01T10:20:35.121Z,17.87
2022-12-01T10:23:28.572Z,19.20
2022-12-01T10:25:59.303Z,18.10
2022-12-01T10:28:53.811Z,18.70
2022-12-01T10:31:26.004Z,19.37
2022-12-01T10:34:01.895Z,17.80
2022-12-01T10:36:31.573Z,18.90
2022-12-01T10:38:59.461Z,17.00
2022-12-01T10:41:29.750Z,20.43
2022-12-01T10:44:00.917Z,18.57
2022-12-01T10:46:35.070Z,20.40
2022-12-01T10:49:09.620Z,16.93
2022-12-01T10:51:54.710Z,17.63
2022-12-01T10:54:23.070Z,17.67
2022-12-01T10:56:56.605Z,18.57
2022-12-01T10:59:32.532Z,19.93
2022-12-01T11:02:02.159Z,17.53
2022-12-01T11:04:36.890Z,17.43
2022-12-01T11:07:05.348Z,17.80
2022-12-01T11:09:33.710Z,17.93
2022-12-01T11:12:03.836Z,18.30
2022-12-01T11:14:42.020Z,16.53
2022-12-01T11:17:27.966Z,18.80
2022-12-01T11:19:58.707Z,18.07
2022-12-01T11:22:29.861Z,17.00
2022-12-01T11:25:00.676Z,18.20
2022-12-01T11:27:31.534Z,18.60
2022-12-01T11:30:04.785Z,17.97
2022-12-01T11:32:35.341Z,17.17
2022-12-01T11:35:15.570Z,18.53
2022-12-01T11:37:54.788Z,17.70
2022-12-01T11:40:30.777Z,19.30
2022-12-01T11:43:00.892Z,16.03
2022-12-01T11:45:32.364Z,18.40
2022-12-01T11:48:06.761Z,17.03
2022-12-01T11:50:37.527Z,17.67
2022-12-01T11:53:25.597Z,18.30
2022-12-01T11:55:53.249Z,18.10
2022-12-01T11:58:21.024Z,17.90
2022-12-01T12:00:56.087Z,19.17
2022-12-01T12:03:33.517Z,18.13
2022-12-01T12:09:29.069Z,19.13
2022-12-01T12:12:06.218Z,18.63
2022-12-01T12:14:46.458Z,18.10
2022-12-01T12:17:25.560Z,16.90
2022-12-01T12:20:08.659Z,15.57
2022-12-01T12:23:04.975Z,16.03
2022-12-01T12:25:49.518Z,16.50
2022-12-01T12:28:32.009Z,15.40
2022-12-01T12:31:08.733Z,14.67
2022-12-01T12:34:00.452Z,15.03
2022-12-01T12:36:42.444Z,15.97
2022-12-01T12:39:30.578Z,15.23
2022-12-01T12:41:59.705Z,15.33
2022-12-01T12:44:47.119Z,16.10
2022-12-01T12:47:32.954Z,13.30
2022-12-01T12:50:12.984Z,16.53
2022-12-01T12:52:44.927Z,13.73
2022-12-01T12:55:18.137Z,14.43
2022-12-01T12:57:49.062Z,13.87
2022-12-01T13:00:19.648Z,15.33
2022-12-01T13:02:51.491Z,15.57
2022-12-01T13:05:24.835Z,12.50
2022-12-01T13:07:58.988Z,14.20
2022-12-01T13:10:37.765Z,12.47
2022-12-01T13:13:18.314Z,17.70
2022-12-01T13:15:47.851Z,13.13
2022-12-01T13:18:33.505Z,13.17
2022-12-01T13:21:04.161Z,14.20
2022-12-01T13:23:33.660Z,15.10
2022-12-01T13:26:08.943Z,13.90
2022-12-01T13:28:40.918Z,17.27
2022-12-01T13:31:11.064Z,13.33
2022-12-01T13:33:46.165Z,13.07
2022-12-01T13:39:05.301Z,20.97
2022-12-01T13:41:37.903Z,15.27
2022-12-01T13:44:09.053Z,14.70
2022-12-01T13:46:53.924Z,14.83
2022-12-01T13:49:39.726Z,13.00
2022-12-01T13:52:49.242Z,13.80
2022-12-01T13:55:30.302Z,23.07
2022-12-01T13:58:25.240Z,16.30
2022-12-01T14:00:53.630Z,16.60
2022-12-01T14:03:42.436Z,19.33
2022-12-01T14:06:26.031Z,21.10
2022-12-01T14:08:58.614Z,15.03
2022-12-01T14:11:28.529Z,15.57
2022-12-01T14:14:00.879Z,17.17
2022-12-01T14:16:47.961Z,15.43
2022-12-01T14:19:31.128Z,15.60
2022-12-01T14:21:58.828Z,14.33
2022-12-01T14:24:31.801Z,14.87
2022-12-01T14:26:59.510Z,15.00
2022-12-01T14:29:34.050Z,15.00
2022-12-01T14:32:23.109Z,14.40
2022-12-01T14:35:04.260Z,14.50
2022-12-01T14:37:42.431Z,14.60
2022-12-01T14:40:16.692Z,15.83
2022-12-01T14:43:05.366Z,15.93
2022-12-01T14:45:40.775Z,12.93
2022-12-01T14:48:13.452Z,14.43
2022-12-01T14:50:46.728Z,15.40
2022-12-01T14:53:26.825Z,14.13
2022-12-01T14:55:58.028Z,14.60
2022-12-01T14:58:28.759Z,12.50
2022-12-01T15:01:08.314Z,13.50
2022-12-01T15:03:39.423Z,14.10
2022-12-01T15:06:07.605Z,12.57
2022-12-01T15:08:43.554Z,12.20
2022-12-01T15:11:22.726Z,10.40
2022-12-01T15:13:52.715Z,10.87
2022-12-01T15:16:23.214Z,12.93
2022-12-01T15:18:51.636Z,11.80
2022-12-01T15:21:21.659Z,14.17
2022-12-01T15:23:57.314Z,13.60
2022-12-01T15:26:27.129Z,13.23
2022-12-01T15:29:15.349Z,12.00
2022-12-01T15:31:45.930Z,13.10
2022-12-01T15:34:16.855Z,12.83
2022-12-01T15:36:45.397Z,13.87
2022-12-01T15:39:16.619Z,16.43
2022-12-01T15:41:46.508Z,13.13
2022-12-01T15:44:22.478Z,9.37
2022-12-01T15:46:51.530Z,12.17
2022-12-01T15:49:21.114Z,10.73
2022-12-01T15:51:50.706Z,12.80
2022-12-01T15:54:22.383Z,14.43
2022-12-01T15:56:54.140Z,10.97
2022-12-01T15:59:37.591Z,12.37
2022-12-01T16:02:23.691Z,13.20
2022-12-01T16:05:01.470Z,12.43
2022-12-01T16:07:57.192Z,11.53
2022-12-01T16:10:31.386Z,13.03
2022-12-01T16:13:38.957Z,12.27
2022-12-01T16:16:29.677Z,12.43
2022-12-01T16:19:00.747Z,12.13
2022-12-01T16:21:29.996Z,13.40
2022-12-01T16:24:02.800Z,12.70
2022-12-01T16:26:31.080Z,14.80
2022-12-01T16:28:59.718Z,13.77
2022-12-01T16:31:28.257Z,12.60
2022-12-01T16:34:18.440Z,13.03
2022-12-01T16:36:52.238Z,11.53
2022-12-01T16:39:19.900Z,12.23
2022-12-01T16:41:48.005Z,11.30
2022-12-01T16:44:32.154Z,12.67
2022-12-01T16:46:59.859Z,10.27
2022-12-01T16:49:28.848Z,15.33
2022-12-01T16:51:57.390Z,15.53
2022-12-01T16:54:25.757Z,14.47
2022-12-01T16:56:53.407Z,15.00
2022-12-01T16:59:21.447Z,15.03
2022-12-01T17:01:49.229Z,14.40
2022-12-01T17:04:16.981Z,15.13
2022-12-01T17:06:46.001Z,19.93
2022-12-01T17:09:13.807Z,15.67
2022-12-01T17:11:41.529Z,18.63
2022-12-01T17:14:09.171Z,18.20
2022-12-01T17:16:37.033Z,19.53
2022-12-01T17:19:05.262Z,17.73
2022-12-01T17:21:32.930Z,17.17
2022-12-01T17:24:01.952Z,17.23
2022-12-01T17:26:29.610Z,16.47
2022-12-01T17:28:57.300Z,17.20
2022-12-01T17:31:25.019Z,16.33
2022-12-01T17:33:52.789Z,12.87
2022-12-01T17:36:20.476Z,12.90
2022-12-01T17:38:48.860Z,16.73
2022-12-01T17:41:21.741Z,16.37
2022-12-01T17:43:49.410Z,17.00
2022-12-01T17:46:17.218Z,12.10
2022-12-01T17:48:46.707Z,11.43
2022-12-01T17:51:15.675Z,13.93
2022-12-01T17:53:43.504Z,13.83
2022-12-01T17:56:13.774Z,14.07
2022-12-01T17:58:43.266Z,14.67
2022-12-01T18:01:14.790Z,13.93
2022-12-01T18:03:42.804Z,13.63
2022-12-01T18:06:10.676Z,13.17
2022-12-01T18:08:39.664Z,14.77
2022-12-01T18:11:10.022Z,15.87
2022-12-01T18:13:38.322Z,11.70
2022-12-01T18:16:12.084Z,12.70
2022-12-01T18:18:40.311Z,12.47
2022-12-01T18:21:09.993Z,12.97
2022-12-01T18:23:38.293Z,12.53
2022-12-01T18:26:12.138Z,15.90
2022-12-01T18:28:42.986Z,13.40
2022-12-01T18:31:15.358Z,14.20
2022-12-01T18:33:44.806Z,16.60
2022-12-01T18:36:14.624Z,15.37
2022-12-01T18:38:42.422Z,14.47
2022-12-01T18:41:10.586Z,15.33
2022-12-01T18:43:38.331Z,15.17
2022-12-01T18:46:07.318Z,18.50
2022-12-01T18:48:36.784Z,17.33
2022-12-01T18:51:05.771Z,18.17
2022-12-01T18:53:33.866Z,16.57
2022-12-01T18:56:03.276Z,15.97
2022-12-01T18:58:30.939Z,16.17
2022-12-01T19:00:58.842Z,16.07
2022-12-01T19:03:26.709Z,15.50
2022-12-01T19:05:55.824Z,15.97
2022-12-01T19:08:23.604Z,14.83
2022-12-01T19:10:59.727Z,14.37
2022-12-01T19:13:27.467Z,16.00
2022-12-01T19:15:55.163Z,15.90
2022-12-01T19:18:23.011Z,16.97
2022-12-01T19:20:50.914Z,15.73
2022-12-01T19:23:19.993Z,15.93
2022-12-01T19:25:47.607Z,15.03
2022-12-01T19:28:15.243Z,16.63
2022-12-01T19:30:47.953Z,16.07
2022-12-01T19:33:15.966Z,16.33
2022-12-01T19:35:43.707Z,17.17
2022-12-01T19:38:11.324Z,14.00
2022-12-01T19:40:42.105Z,15.97
2022-12-01T19:43:10.072Z,15.23
2022-12-01T19:45:38.844Z,14.43
2022-12-01T19:48:07.326Z,15.23
2022-12-01T19:50:36.415Z,14.57
2022-12-01T19:53:04.347Z,12.90
2022-12-01T19:55:31.990Z,15.33
2022-12-01T19:58:01.079Z,15.23
2022-12-01T20:00:28.744Z,14.20
2022-12-01T20:02:57.716Z,13.43
2022-12-01T20:05:25.339Z,14.27
2022-12-01T20:07:53.113Z,16.13
2022-12-01T20:10:20.959Z,14.73
2022-12-01T20:12:48.939Z,15.63
2022-12-01T20:15:18.038Z,15.93
2022-12-01T20:17:45.649Z,15.00
2022-12-01T20:20:15.074Z,13.97
2022-12-01T20:22:42.873Z,14.50
2022-12-01T20:25:10.826Z,16.47
2022-12-01T20:27:38.584Z,16.73
2022-12-01T20:30:07.632Z,13.17
2022-12-01T20:32:38.110Z,13.90
2022-12-01T20:35:06.915Z,14.97
2022-12-01T20:37:34.637Z,13.03
2022-12-01T20:40:02.459Z,17.97
2022-12-01T20:42:30.344Z,15.83
2022-12-01T20:44:58.355Z,15.63
2022-12-01T20:47:26.206Z,20.60
2022-12-01T20:49:58.314Z,16.20
2022-12-01T20:52:26.419Z,15.47
2022-12-01T20:54:54.158Z,12.17
2022-12-01T20:57:21.973Z,13.43
2022-12-01T20:59:49.767Z,15.00
2022-12-01T21:02:17.560Z,13.37
2022-12-01T21:04:45.485Z,13.67
2022-12-01T21:07:14.650Z,14.20
2022-12-01T21:09:42.500Z,15.37
2022-12-01T21:12:33.600Z,14.10
2022-12-01T21:15:07.131Z,12.33
2022-12-01T21:17:38.469Z,14.70
2022-12-01T21:20:18.034Z,14.73
2022-12-01T21:22:47.628Z,14.70
2022-12-01T21:25:20.193Z,15.97
2022-12-01T21:27:48.478Z,13.73
2022-12-01T21:30:19.031Z,14.77
2022-12-01T21:32:47.887Z,13.47
2022-12-01T21:35:19.259Z,14.20
2022-12-01T21:37:49.339Z,14.90
2022-12-01T21:40:20.086Z,15.23
2022-12-01T21:42:47.875Z,15.07
2022-12-01T21:45:20.148Z,13.60
2022-12-01T21:47:48.004Z,17.70
2022-12-01T21:50:21.100Z,14.83
2022-12-01T21:52:51.204Z,16.60
2022-12-01T21:55:35.781Z,15.97
2022-12-01T21:58:20.971Z,18.43
2022-12-01T22:00:49.041Z,16.47
2022-12-01T22:03:28.202Z,16.70
2022-12-01T22:06:29.200Z,15.37
2022-12-01T22:08:53.200Z,14.77
2022-12-01T22:11:23.029Z,17.10
2022-12-01T22:13:55.924Z,16.87
2022-12-01T22:16:29.647Z,17.30
2022-12-01T22:18:59.365Z,17.03
2022-12-01T22:21:31.828Z,16.00
2022-12-01T22:24:20.553Z,16.27
2022-12-01T22:26:50.101Z,18.17
2022-12-01T22:29:27.563Z,15.47
2022-12-01T22:32:18.462Z,15.37
2022-12-01T22:34:52.055Z,16.40
2022-12-01T22:37:24.399Z,17.00
2022-12-01T22:39:56.097Z,16.60
2022-12-01T22:42:31.353Z,17.30
2022-12-01T22:45:02.239Z,17.13
2022-12-01T22:47:33.623Z,17.40
2022-12-01T22:50:01.541Z,14.93
2022-12-01T22:52:30.827Z,17.23
2022-12-01T22:54:59.839Z,16.63
2022-12-01T22:57:33.154Z,16.00
2022-12-01T23:00:13.963Z,18.90
2022-12-01T23:02:41.976Z,19.77
2022-12-01T23:05:22.164Z,21.93
2022-12-01T23:07:50.632Z,19.33
2022-12-01T23:10:22.178Z,20.90
2022-12-01T23:12:51.598Z,19.83
2022-12-01T23:15:27.977Z,21.53
2022-12-01T23:17:55.754Z,20.63
2022-12-01T23:20:30.949Z,23.33
2022-12-01T23:23:01.045Z,21.70
2022-12-01T23:25:30.215Z,24.30
2022-12-01T23:28:01.439Z,23.33
2022-12-01T23:30:29.572Z,22.03
2022-12-01T23:33:18.672Z,26.03
2022-12-01T23:35:49.426Z,21.97
2022-12-01T23:38:20.509Z,23.83
2022-12-01T23:40:51.542Z,23.87
2022-12-01T23:43:22.871Z,25.27
2022-12-01T23:45:52.570Z,24.67
2022-12-01T23:48:23.959Z,25.07
2022-12-01T23:50:54.018Z,23.77
2022-12-01T23:53:29.858Z,24.77
2022-12-01T23:56:12.938Z,24.30
2022-12-01T23:58:40.599Z,24.17
